sensor_id;sensor_type;location;lat;lon;timestamp;pressure;altitude;pressure_sealevel;temperature;humidity
10093;BME280;5085;48.092;11.484;2023-02-11T00:00:11;96975.13;;;-2.95;100.00
10093;BME280;5085;48.092;11.484;2023-02-11T00:02:38;96980.84;;;-3.00;100.00
10093;BME280;5085;48.092;11.484;2023-02-11T00:05:04;96989.03;;;-3.03;100.00
10093;BME280;5085;48.092;11.484;2023-02-11T00:07:31;96988.63;;;-3.08;100.00
10093;BME280;5085;48.092;11.484;2023-02-11T00:09:58;96975.06;;;-3.13;100.00
10093;BME280;5085;48.092;11.484;2023-02-11T00:12:24;96975.63;;;-3.19;100.00
10093;BME280;5085;48.092;11.484;2023-02-11T00:14:51;96976.88;;;-3.23;100.00
10093;BME280;5085;48.092;11.484;2023-02-11T00:17:17;96982.28;;;-3.25;100.00
10093;BME280;5085;48.092;11.484;2023-02-11T00:19:43;96983.41;;;-3.28;100.00
10093;BME280;5085;48.092;11.484;2023-02-11T00:22:09;96977.59;;;-3.31;100.00
10093;BME280;5085;48.092;11.484;2023-02-11T00:24:35;96973.72;;;-3.37;100.00
10093;BME280;5085;48.092;11.484;2023-02-11T00:27:01;96982.03;;;-3.41;100.00
10093;BME280;5085;48.092;11.484;2023-02-11T00:29:28;96980.66;;;-3.45;100.00
10093;BME280;5085;48.092;11.484;2023-02-11T00:31:55;96976.66;;;-3.49;100.00
10093;BME280;5085;48.092;11.484;2023-02-11T00:34:23;96968.34;;;-3.55;100.00
10093;BME280;5085;48.092;11.484;2023-02-11T00:36:49;96966.00;;;-3.58;100.00
10093;BME280;5085;48.092;11.484;2023-02-11T00:39:16;96967.97;;;-3.60;100.00
10093;BME280;5085;48.092;11.484;2023-02-11T00:41:42;96967.97;;;-3.60;100.00
10093;BME280;5085;48.092;11.484;2023-02-11T00:44:08;96975.28;;;-3.63;100.00
10093;BME280;5085;48.092;11.484;2023-02-11T00:46:34;96970.19;;;-3.65;100.00
10093;BME280;5085;48.092;11.484;2023-02-11T00:49:00;96965.59;;;-3.63;100.00
10093;BME280;5085;48.092;11.484;2023-02-11T00:51:27;96958.41;;;-3.61;100.00
10093;BME280;5085;48.092;11.484;2023-02-11T00:53:53;96968.50;;;-3.56;100.00
10093;BME280;5085;48.092;11.484;2023-02-11T00:56:20;96956.03;;;-3.54;100.00
10093;BME280;5085;48.092;11.484;2023-02-11T00:58:46;96953.78;;;-3.49;100.00
10093;BME280;5085;48.092;11.484;2023-02-11T01:01:12;96956.00;;;-3.44;100.00
10093;BME280;5085;48.092;11.484;2023-02-11T01:03:39;96949.34;;;-3.39;100.00
10093;BME280;5085;48.092;11.484;2023-02-11T01:06:07;96944.63;;;-3.35;100.00
10093;BME280;5085;48.092;11.484;2023-02-11T01:08:35;96953.22;;;-3.33;100.00
10093;BME280;5085;48.092;11.484;2023-02-11T01:11:04;96956.53;;;-3.31;100.00
10093;BME280;5085;48.092;11.484;2023-02-11T01:13:33;96954.03;;;-3.33;100.00
10093;BME280;5085;48.092;11.484;2023-02-11T01:15:59;96955.84;;;-3.33;100.00
10093;BME280;5085;48.092;11.484;2023-02-11T01:18:25;96944.47;;;-3.34;100.00
10093;BME280;5085;48.092;11.484;2023-02-11T01:20:52;96947.13;;;-3.34;100.00
10093;BME280;5085;48.092;11.484;2023-02-11T01:23:19;96948.91;;;-3.34;100.00
10093;BME280;5085;48.092;11.484;2023-02-11T01:25:44;96953.47;;;-3.36;100.00
10093;BME280;5085;48.092;11.484;2023-02-11T01:28:19;96952.81;;;-3.38;100.00
10093;BME280;5085;48.092;11.484;2023-02-11T01:30:45;96954.75;;;-3.40;100.00
10093;BME280;5085;48.092;11.484;2023-02-11T01:33:11;96937.72;;;-3.46;100.00
10093;BME280;5085;48.092;11.484;2023-02-11T01:35:38;96940.78;;;-3.50;100.00
10093;BME280;5085;48.092;11.484;2023-02-11T01:38:13;96942.84;;;-3.54;100.00
10093;BME280;5085;48.092;11.484;2023-02-11T01:40:40;96946.75;;;-3.58;100.00
10093;BME280;5085;48.092;11.484;2023-02-11T01:43:06;96942.63;;;-3.61;100.00
10093;BME280;5085;48.092;11.484;2023-02-11T01:48:13;96936.25;;;-3.68;100.00
10093;BME280;5085;48.092;11.484;2023-02-11T01:50:41;96938.16;;;-3.70;100.00
10093;BME280;5085;48.092;11.484;2023-02-11T01:53:08;96953.28;;;-3.72;100.00
10093;BME280;5085;48.092;11.484;2023-02-11T01:55:53;96947.31;;;-3.74;100.00
10093;BME280;5085;48.092;11.484;2023-02-11T01:58:40;96941.66;;;-3.79;100.00
10093;BME280;5085;48.092;11.484;2023-02-11T02:01:10;96933.34;;;-3.84;100.00
10093;BME280;5085;48.092;11.484;2023-02-11T02:03:41;96940.69;;;-3.88;100.00
10093;BME280;5085;48.092;11.484;2023-02-11T02:06:18;96942.63;;;-3.90;100.00
10093;BME280;5085;48.092;11.484;2023-02-11T02:09:02;96946.09;;;-3.89;100.00
10093;BME280;5085;48.092;11.484;2023-02-11T02:11:29;96940.97;;;-3.91;100.00
10093;BME280;5085;48.092;11.484;2023-02-11T02:13:55;96939.31;;;-3.92;100.00
10093;BME280;5085;48.092;11.484;2023-02-11T02:16:25;96932.53;;;-3.94;100.00
10093;BME280;5085;48.092;11.484;2023-02-11T02:19:23;96928.38;;;-3.97;100.00
10093;BME280;5085;48.092;11.484;2023-02-11T02:22:31;96916.19;;;-3.98;100.00
10093;BME280;5085;48.092;11.484;2023-02-11T02:25:20;96922.28;;;-3.97;100.00
10093;BME280;5085;48.092;11.484;2023-02-11T02:34:01;96908.56;;;-4.01;100.00
10093;BME280;5085;48.092;11.484;2023-02-11T02:36:36;96900.13;;;-4.05;100.00
10093;BME280;5085;48.092;11.484;2023-02-11T02:39:10;96901.25;;;-4.07;100.00
10093;BME280;5085;48.092;11.484;2023-02-11T02:41:39;96906.78;;;-4.10;100.00
10093;BME280;5085;48.092;11.484;2023-02-11T02:44:07;96897.09;;;-4.10;100.00
10093;BME280;5085;48.092;11.484;2023-02-11T02:46:34;96895.56;;;-4.12;100.00
10093;BME280;5085;48.092;11.484;2023-02-11T02:49:00;96895.44;;;-4.11;100.00
10093;BME280;5085;48.092;11.484;2023-02-11T02:57:30;96888.81;;;-4.15;100.00
10093;BME280;5085;48.092;11.484;2023-02-11T03:09:11;96876.03;;;-4.00;100.00
10093;BME280;5085;48.092;11.484;2023-02-11T03:11:27;96874.13;;;-3.98;100.00
10093;BME280;5085;48.092;11.484;2023-02-11T03:13:55;96868.69;;;-3.96;100.00
10093;BME280;5085;48.092;11.484;2023-02-11T03:16:26;96869.41;;;-3.94;100.00
10093;BME280;5085;48.092;11.484;2023-02-11T03:19:00;96856.66;;;-3.89;100.00
10093;BME280;5085;48.092;11.484;2023-02-11T03:21:31;96862.31;;;-3.84;100.00
10093;BME280;5085;48.092;11.484;2023-02-11T03:24:05;96858.44;;;-3.80;100.00
10093;BME280;5085;48.092;11.484;2023-02-11T03:26:45;96858.00;;;-3.75;100.00
10093;BME280;5085;48.092;11.484;2023-02-11T03:29:31;96847.75;;;-3.69;100.00
10093;BME280;5085;48.092;11.484;2023-02-11T03:32:16;96840.34;;;-3.65;100.00
10093;BME280;5085;48.092;11.484;2023-02-11T03:37:33;96842.28;;;-3.58;100.00
10093;BME280;5085;48.092;11.484;2023-02-11T03:40:12;96845.63;;;-3.56;100.00
10093;BME280;5085;48.092;11.484;2023-02-11T03:42:48;96836.88;;;-3.56;100.00
10093;BME280;5085;48.092;11.484;2023-02-11T03:45:18;96845.75;;;-3.57;100.00
10093;BME280;5085;48.092;11.484;2023-02-11T03:47:51;96853.13;;;-3.61;100.00
10093;BME280;5085;48.092;11.484;2023-02-11T03:50:20;96853.25;;;-3.62;100.00
10093;BME280;5085;48.092;11.484;2023-02-11T03:52:48;96843.97;;;-3.66;100.00
10093;BME280;5085;48.092;11.484;2023-02-11T03:55:16;96848.16;;;-3.73;100.00
10093;BME280;5085;48.092;11.484;2023-02-11T03:57:43;96836.28;;;-3.78;100.00
10093;BME280;5085;48.092;11.484;2023-02-11T04:00:10;96852.19;;;-3.79;100.00
10093;BME280;5085;48.092;11.484;2023-02-11T04:02:40;96860.22;;;-3.81;100.00
10093;BME280;5085;48.092;11.484;2023-02-11T04:05:08;96873.00;;;-3.86;100.00
10093;BME280;5085;48.092;11.484;2023-02-11T04:07:35;96864.81;;;-3.92;100.00
10093;BME280;5085;48.092;11.484;2023-02-11T04:10:01;96855.81;;;-3.99;100.00
10093;BME280;5085;48.092;11.484;2023-02-11T04:12:27;96864.00;;;-4.03;100.00
10093;BME280;5085;48.092;11.484;2023-02-11T04:14:53;96850.88;;;-4.03;100.00
10093;BME280;5085;48.092;11.484;2023-02-11T04:17:19;96859.44;;;-4.00;100.00
10093;BME280;5085;48.092;11.484;2023-02-11T04:19:45;96856.69;;;-3.99;100.00
10093;BME280;5085;48.092;11.484;2023-02-11T04:22:11;96854.44;;;-3.94;100.00
10093;BME280;5085;48.092;11.484;2023-02-11T04:24:37;96860.53;;;-3.93;100.00
10093;BME280;5085;48.092;11.484;2023-02-11T04:27:03;96858.56;;;-3.91;100.00
10093;BME280;5085;48.092;11.484;2023-02-11T04:29:29;96874.50;;;-3.93;100.00
10093;BME280;5085;48.092;11.484;2023-02-11T04:31:56;96865.78;;;-3.93;100.00
10093;BME280;5085;48.092;11.484;2023-02-11T04:34:22;96869.69;;;-3.97;100.00
10093;BME280;5085;48.092;11.484;2023-02-11T04:36:49;96873.28;;;-3.98;100.00
10093;BME280;5085;48.092;11.484;2023-02-11T04:39:15;96877.16;;;-4.03;100.00
10093;BME280;5085;48.092;11.484;2023-02-11T04:41:41;96880.75;;;-4.04;100.00
10093;BME280;5085;48.092;11.484;2023-02-11T04:44:07;96880.06;;;-4.06;100.00
10093;BME280;5085;48.092;11.484;2023-02-11T04:46:33;96887.28;;;-4.08;100.00
10093;BME280;5085;48.092;11.484;2023-02-11T04:49:00;96889.34;;;-4.11;100.00
10093;BME280;5085;48.092;11.484;2023-02-11T04:51:26;96892.09;;;-4.13;100.00
10093;BME280;5085;48.092;11.484;2023-02-11T04:53:52;96897.66;;;-4.16;100.00
10093;BME280;5085;48.092;11.484;2023-02-11T04:56:18;96898.91;;;-4.20;100.00
10093;BME280;5085;48.092;11.484;2023-02-11T04:58:44;96904.28;;;-4.21;100.00
10093;BME280;5085;48.092;11.484;2023-02-11T05:01:12;96902.06;;;-4.26;100.00
10093;BME280;5085;48.092;11.484;2023-02-11T05:03:39;96904.16;;;-4.30;100.00
10093;BME280;5085;48.092;11.484;2023-02-11T05:06:05;96914.81;;;-4.31;100.00
10093;BME280;5085;48.092;11.484;2023-02-11T05:08:31;96912.19;;;-4.31;100.00
10093;BME280;5085;48.092;11.484;2023-02-11T05:10:58;96912.19;;;-4.31;100.00
10093;BME280;5085;48.092;11.484;2023-02-11T05:13:24;96909.81;;;-4.34;100.00
10093;BME280;5085;48.092;11.484;2023-02-11T05:15:50;96907.50;;;-4.37;100.00
10093;BME280;5085;48.092;11.484;2023-02-11T05:18:16;96905.69;;;-4.37;100.00
10093;BME280;5085;48.092;11.484;2023-02-11T05:20:42;96907.34;;;-4.36;100.00
10093;BME280;5085;48.092;11.484;2023-02-11T05:23:09;96897.38;;;-4.32;100.00
10093;BME280;5085;48.092;11.484;2023-02-11T05:25:35;96902.06;;;-4.26;100.00
10093;BME280;5085;48.092;11.484;2023-02-11T05:28:02;96896.13;;;-4.18;100.00
10093;BME280;5085;48.092;11.484;2023-02-11T05:30:28;96896.81;;;-4.07;100.00
10093;BME280;5085;48.092;11.484;2023-02-11T05:32:54;96890.56;;;-3.96;100.00
10093;BME280;5085;48.092;11.484;2023-02-11T05:35:20;96898.16;;;-3.83;100.00
10093;BME280;5085;48.092;11.484;2023-02-11T05:37:46;96886.50;;;-3.71;100.00
10093;BME280;5085;48.092;11.484;2023-02-11T05:40:12;96891.75;;;-3.61;100.00
10093;BME280;5085;48.092;11.484;2023-02-11T05:42:39;96883.69;;;-3.50;100.00
10093;BME280;5085;48.092;11.484;2023-02-11T05:45:05;96889.63;;;-3.38;100.00
10093;BME280;5085;48.092;11.484;2023-02-11T05:47:31;96885.28;;;-3.30;100.00
10093;BME280;5085;48.092;11.484;2023-02-11T05:49:57;96884.41;;;-3.20;100.00
10093;BME280;5085;48.092;11.484;2023-02-11T05:52:23;96885.63;;;-3.15;100.00
10093;BME280;5085;48.092;11.484;2023-02-11T05:54:49;96880.47;;;-3.07;100.00
10093;BME280;5085;48.092;11.484;2023-02-11T05:57:15;96880.88;;;-3.02;100.00
10093;BME280;5085;48.092;11.484;2023-02-11T05:59:42;96872.38;;;-2.95;100.00
10093;BME280;5085;48.092;11.484;2023-02-11T06:02:08;96864.56;;;-2.87;100.00
10093;BME280;5085;48.092;11.484;2023-02-11T06:04:35;96876.19;;;-2.80;100.00
10093;BME280;5085;48.092;11.484;2023-02-11T06:07:02;96865.03;;;-2.74;100.00
10093;BME280;5085;48.092;11.484;2023-02-11T06:09:28;96867.91;;;-2.67;100.00
10093;BME280;5085;48.092;11.484;2023-02-11T06:11:54;96865.50;;;-2.61;100.00
10093;BME280;5085;48.092;11.484;2023-02-11T06:14:20;96863.09;;;-2.54;100.00
10093;BME280;5085;48.092;11.484;2023-02-11T06:16:46;96852.63;;;-2.46;100.00
10093;BME280;5085;48.092;11.484;2023-02-11T06:19:12;96854.50;;;-2.38;100.00
10093;BME280;5085;48.092;11.484;2023-02-11T06:21:38;96860.84;;;-2.31;100.00
10093;BME280;5085;48.092;11.484;2023-02-11T06:24:05;96872.44;;;-2.24;100.00
10093;BME280;5085;48.092;11.484;2023-02-11T06:26:31;96868.53;;;-2.20;100.00
10093;BME280;5085;48.092;11.484;2023-02-11T06:29:00;96866.09;;;-2.13;100.00
10093;BME280;5085;48.092;11.484;2023-02-11T06:31:27;96857.72;;;-2.09;100.00
10093;BME280;5085;48.092;11.484;2023-02-11T06:33:53;96864.22;;;-2.03;100.00
10093;BME280;5085;48.092;11.484;2023-02-11T06:36:20;96866.38;;;-1.98;100.00
10093;BME280;5085;48.092;11.484;2023-02-11T06:38:47;96872.69;;;-1.91;100.00
10093;BME280;5085;48.092;11.484;2023-02-11T06:41:16;96876.69;;;-1.87;100.00
10093;BME280;5085;48.092;11.484;2023-02-11T06:43:43;96879.56;;;-1.81;100.00
10093;BME280;5085;48.092;11.484;2023-02-11T06:46:09;96878.44;;;-1.78;100.00
10093;BME280;5085;48.092;11.484;2023-02-11T06:48:35;96874.50;;;-1.74;100.00
10093;BME280;5085;48.092;11.484;2023-02-11T06:51:06;96868.59;;;-1.68;100.00
10093;BME280;5085;48.092;11.484;2023-02-11T06:53:38;96877.38;;;-1.59;100.00
10093;BME280;5085;48.092;11.484;2023-02-11T06:56:07;96868.81;;;-1.53;100.00
10093;BME280;5085;48.092;11.484;2023-02-11T06:58:33;96869.72;;;-1.44;100.00
10093;BME280;5085;48.092;11.484;2023-02-11T07:01:03;96868.78;;;-1.35;100.00
10093;BME280;5085;48.092;11.484;2023-02-11T07:03:32;96870.19;;;-1.23;100.00
10093;BME280;5085;48.092;11.484;2023-02-11T07:05:59;96869.22;;;-1.14;100.00
10093;BME280;5085;48.092;11.484;2023-02-11T07:08:25;96875.38;;;-1.05;100.00
10093;BME280;5085;48.092;11.484;2023-02-11T07:10:51;96881.34;;;-0.95;100.00
10093;BME280;5085;48.092;11.484;2023-02-11T07:13:17;96874.97;;;-0.84;100.00
10093;BME280;5085;48.092;11.484;2023-02-11T07:15:43;96882.09;;;-0.68;100.00
10093;BME280;5085;48.092;11.484;2023-02-11T07:18:09;96875.38;;;-0.55;100.00
10093;BME280;5085;48.092;11.484;2023-02-11T07:20:36;96891.94;;;-0.44;100.00
10093;BME280;5085;48.092;11.484;2023-02-11T07:23:03;96894.09;;;-0.40;100.00
10093;BME280;5085;48.092;11.484;2023-02-11T07:25:30;96888.63;;;-0.38;100.00
10093;BME280;5085;48.092;11.484;2023-02-11T07:27:56;96873.44;;;-0.36;100.00
10093;BME280;5085;48.092;11.484;2023-02-11T07:30:22;96874.06;;;-0.34;100.00
10093;BME280;5085;48.092;11.484;2023-02-11T07:32:48;96874.59;;;-0.31;100.00
10093;BME280;5085;48.092;11.484;2023-02-11T07:35:14;96871.63;;;-0.28;100.00
10093;BME280;5085;48.092;11.484;2023-02-11T07:37:40;96868.31;;;-0.21;100.00
10093;BME280;5085;48.092;11.484;2023-02-11T07:40:07;96859.22;;;-0.19;100.00
10093;BME280;5085;48.092;11.484;2023-02-11T07:42:34;96858.91;;;-0.16;100.00
10093;BME280;5085;48.092;11.484;2023-02-11T07:45:00;96863.38;;;-0.16;100.00
10093;BME280;5085;48.092;11.484;2023-02-11T07:47:26;96873.47;;;-0.12;100.00
10093;BME280;5085;48.092;11.484;2023-02-11T07:49:52;96869.16;;;-0.05;100.00
10093;BME280;5085;48.092;11.484;2023-02-11T07:52:18;96871.81;;;0.04;99.94
10093;BME280;5085;48.092;11.484;2023-02-11T07:54:44;96869.66;;;0.15;99.31
10093;BME280;5085;48.092;11.484;2023-02-11T07:57:14;96874.44;;;0.28;97.94
10093;BME280;5085;48.092;11.484;2023-02-11T07:59:40;96874.94;;;0.40;96.58
10093;BME280;5085;48.092;11.484;2023-02-11T08:02:06;96870.78;;;0.45;95.03
10093;BME280;5085;48.092;11.484;2023-02-11T08:04:33;96870.13;;;0.52;93.59
10093;BME280;5085;48.092;11.484;2023-02-11T08:06:59;96864.13;;;0.58;93.75
10093;BME280;5085;48.092;11.484;2023-02-11T08:09:25;96854.34;;;0.66;93.02
10093;BME280;5085;48.092;11.484;2023-02-11T08:11:51;96845.38;;;0.75;92.22
10093;BME280;5085;48.092;11.484;2023-02-11T08:14:17;96844.84;;;0.88;92.06
10093;BME280;5085;48.092;11.484;2023-02-11T08:16:45;96847.94;;;1.00;91.82
10093;BME280;5085;48.092;11.484;2023-02-11T08:19:13;96832.47;;;1.12;91.16
10093;BME280;5085;48.092;11.484;2023-02-11T08:21:40;96846.66;;;1.27;90.54
10093;BME280;5085;48.092;11.484;2023-02-11T08:24:06;96852.06;;;1.42;89.58
10093;BME280;5085;48.092;11.484;2023-02-11T08:26:33;96840.69;;;1.56;88.06
10093;BME280;5085;48.092;11.484;2023-02-11T08:29:01;96846.66;;;1.81;86.87
10093;BME280;5085;48.092;11.484;2023-02-11T08:31:37;96847.78;;;2.10;85.27
10093;BME280;5085;48.092;11.484;2023-02-11T08:34:03;96842.53;;;2.39;83.67
10093;BME280;5085;48.092;11.484;2023-02-11T08:36:32;96844.13;;;2.78;80.86
10093;BME280;5085;48.092;11.484;2023-02-11T08:39:00;96848.44;;;3.23;77.84
10093;BME280;5085;48.092;11.484;2023-02-11T08:41:33;96849.47;;;3.44;72.81
10093;BME280;5085;48.092;11.484;2023-02-11T08:44:00;96854.91;;;3.50;71.36
10093;BME280;5085;48.092;11.484;2023-02-11T08:46:26;96846.34;;;3.55;70.74
10093;BME280;5085;48.092;11.484;2023-02-11T08:48:52;96843.06;;;3.53;71.45
10093;BME280;5085;48.092;11.484;2023-02-11T08:51:21;96867.44;;;3.57;73.29
10093;BME280;5085;48.092;11.484;2023-02-11T08:53:48;96866.81;;;3.55;72.63
10093;BME280;5085;48.092;11.484;2023-02-11T08:56:16;96864.72;;;3.50;72.38
10093;BME280;5085;48.092;11.484;2023-02-11T08:58:43;96874.19;;;3.53;72.34
10093;BME280;5085;48.092;11.484;2023-02-11T09:01:24;96865.34;;;3.67;73.14
10093;BME280;5085;48.092;11.484;2023-02-11T09:03:50;96864.91;;;3.85;72.87
10093;BME280;5085;48.092;11.484;2023-02-11T09:06:17;96837.44;;;4.06;71.03
10093;BME280;5085;48.092;11.484;2023-02-11T09:08:46;96838.69;;;4.31;69.38
10093;BME280;5085;48.092;11.484;2023-02-11T09:11:15;96840.28;;;4.54;67.75
10093;BME280;5085;48.092;11.484;2023-02-11T09:13:42;96836.75;;;4.74;66.32
10093;BME280;5085;48.092;11.484;2023-02-11T09:16:18;96843.78;;;4.82;65.59
10093;BME280;5085;48.092;11.484;2023-02-11T09:18:45;96844.38;;;4.78;64.12
10093;BME280;5085;48.092;11.484;2023-02-11T09:21:12;96842.66;;;4.70;62.98
10093;BME280;5085;48.092;11.484;2023-02-11T09:23:38;96842.44;;;4.65;62.83
10093;BME280;5085;48.092;11.484;2023-02-11T09:26:11;96852.91;;;4.66;63.04
10093;BME280;5085;48.092;11.484;2023-02-11T09:28:38;96846.81;;;4.72;62.94
10093;BME280;5085;48.092;11.484;2023-02-11T09:31:06;96843.34;;;4.79;61.36
10093;BME280;5085;48.092;11.484;2023-02-11T09:33:32;96833.72;;;4.84;61.68
10093;BME280;5085;48.092;11.484;2023-02-11T09:36:03;96839.69;;;4.86;60.49
10093;BME280;5085;48.092;11.484;2023-02-11T09:38:30;96850.00;;;4.89;60.78
10093;BME280;5085;48.092;11.484;2023-02-11T09:40:56;96853.09;;;4.93;60.72
10093;BME280;5085;48.092;11.484;2023-02-11T09:43:32;96854.75;;;5.00;59.75
10093;BME280;5085;48.092;11.484;2023-02-11T09:45:59;96840.59;;;5.00;59.04
10093;BME280;5085;48.092;11.484;2023-02-11T09:48:25;96835.25;;;5.00;58.28
10093;BME280;5085;48.092;11.484;2023-02-11T09:50:59;96834.88;;;5.10;58.35
10093;BME280;5085;48.092;11.484;2023-02-11T09:53:30;96849.16;;;5.23;57.11
10093;BME280;5085;48.092;11.484;2023-02-11T09:55:59;96855.84;;;5.54;56.91
10093;BME280;5085;48.092;11.484;2023-02-11T09:58:29;96854.09;;;5.88;55.65
10093;BME280;5085;48.092;11.484;2023-02-11T10:01:02;96839.34;;;6.91;53.85
10093;BME280;5085;48.092;11.484;2023-02-11T10:06:40;96826.13;;;9.06;47.67
10093;BME280;5085;48.092;11.484;2023-02-11T10:09:33;96821.41;;;9.57;46.30
10093;BME280;5085;48.092;11.484;2023-02-11T10:12:21;96816.47;;;9.54;45.85
10093;BME280;5085;48.092;11.484;2023-02-11T10:14:57;96820.22;;;9.16;45.70
10093;BME280;5085;48.092;11.484;2023-02-11T10:20:30;96811.38;;;8.15;46.83
10093;BME280;5085;48.092;11.484;2023-02-11T10:23:00;96805.44;;;7.75;48.14
10093;BME280;5085;48.092;11.484;2023-02-11T10:25:37;96801.69;;;7.44;48.79
10093;BME280;5085;48.092;11.484;2023-02-11T10:28:11;96803.16;;;7.34;49.05
10093;BME280;5085;48.092;11.484;2023-02-11T10:30:49;96799.66;;;7.33;48.61
10093;BME280;5085;48.092;11.484;2023-02-11T10:33:42;96789.34;;;7.37;48.86
10093;BME280;5085;48.092;11.484;2023-02-11T10:36:11;96798.78;;;7.46;47.65
10093;BME280;5085;48.092;11.484;2023-02-11T10:38:38;96810.22;;;7.66;47.50
10093;BME280;5085;48.092;11.484;2023-02-11T10:41:05;96812.53;;;8.26;47.04
10093;BME280;5085;48.092;11.484;2023-02-11T10:43:32;96820.44;;;9.14;45.09
10093;BME280;5085;48.092;11.484;2023-02-11T10:46:01;96805.59;;;10.97;42.71
10093;BME280;5085;48.092;11.484;2023-02-11T10:51:15;96794.78;;;12.64;36.67
10093;BME280;5085;48.092;11.484;2023-02-11T10:53:42;96793.16;;;12.00;37.52
10093;BME280;5085;48.092;11.484;2023-02-11T10:56:20;96786.31;;;11.29;38.69
10093;BME280;5085;48.092;11.484;2023-02-11T10:58:58;96794.81;;;10.74;39.99
10093;BME280;5085;48.092;11.484;2023-02-11T11:04:39;96801.22;;;10.26;40.57
10093;BME280;5085;48.092;11.484;2023-02-11T11:07:24;96799.41;;;10.20;41.17
10093;BME280;5085;48.092;11.484;2023-02-11T11:12:46;96792.59;;;9.75;40.89
10093;BME280;5085;48.092;11.484;2023-02-11T11:15:21;96788.44;;;9.61;42.00
10093;BME280;5085;48.092;11.484;2023-02-11T11:17:50;96779.81;;;9.41;41.87
10093;BME280;5085;48.092;11.484;2023-02-11T11:20:25;96781.22;;;9.25;42.10
10093;BME280;5085;48.092;11.484;2023-02-11T11:23:08;96778.78;;;9.05;41.79
10093;BME280;5085;48.092;11.484;2023-02-11T11:25:37;96774.22;;;8.87;42.06
10093;BME280;5085;48.092;11.484;2023-02-11T11:28:04;96776.88;;;8.69;43.31
10093;BME280;5085;48.092;11.484;2023-02-11T11:30:38;96777.59;;;8.58;43.30
10093;BME280;5085;48.092;11.484;2023-02-11T11:33:18;96776.19;;;8.55;44.03
10093;BME280;5085;48.092;11.484;2023-02-11T11:35:58;96768.34;;;8.54;44.65
10093;BME280;5085;48.092;11.484;2023-02-11T11:38:27;96767.09;;;8.56;44.56
10093;BME280;5085;48.092;11.484;2023-02-11T11:41:26;96760.66;;;8.57;44.07
10093;BME280;5085;48.092;11.484;2023-02-11T11:46:34;96756.06;;;8.83;43.28
10093;BME280;5085;48.092;11.484;2023-02-11T11:49:16;96765.63;;;9.34;43.15
10093;BME280;5085;48.092;11.484;2023-02-11T11:52:10;96757.63;;;9.75;42.01
10093;BME280;5085;48.092;11.484;2023-02-11T11:54:42;96761.69;;;10.08;40.27
10093;BME280;5085;48.092;11.484;2023-02-11T11:57:14;96765.38;;;10.25;40.26
10093;BME280;5085;48.092;11.484;2023-02-11T11:59:43;96771.50;;;10.33;40.98
10093;BME280;5085;48.092;11.484;2023-02-11T12:02:34;96779.34;;;10.34;40.09
10093;BME280;5085;48.092;11.484;2023-02-11T12:05:13;96778.72;;;10.32;40.77
10093;BME280;5085;48.092;11.484;2023-02-11T12:08:08;96778.09;;;10.18;40.19
10093;BME280;5085;48.092;11.484;2023-02-11T12:16:20;96745.78;;;9.65;40.90
10093;BME280;5085;48.092;11.484;2023-02-11T12:21:36;96756.06;;;9.38;38.83
10093;BME280;5085;48.092;11.484;2023-02-11T12:27:05;96759.44;;;9.15;38.28
10093;BME280;5085;48.092;11.484;2023-02-11T12:38:55;96748.97;;;10.15;37.98
10093;BME280;5085;48.092;11.484;2023-02-11T12:47:47;96732.69;;;10.22;38.56
10093;BME280;5085;48.092;11.484;2023-02-11T12:55:32;96723.78;;;11.04;39.08
10093;BME280;5085;48.092;11.484;2023-02-11T12:58:03;96715.69;;;11.04;37.71
10093;BME280;5085;48.092;11.484;2023-02-11T13:01:03;96717.84;;;10.90;37.11
10093;BME280;5085;48.092;11.484;2023-02-11T13:03:39;96714.69;;;10.81;37.61
10093;BME280;5085;48.092;11.484;2023-02-11T13:06:10;96715.84;;;10.73;37.87
10093;BME280;5085;48.092;11.484;2023-02-11T13:08:50;96709.19;;;10.88;37.41
10093;BME280;5085;48.092;11.484;2023-02-11T13:11:25;96706.22;;;11.01;37.28
10093;BME280;5085;48.092;11.484;2023-02-11T13:13:55;96714.06;;;11.02;37.44
10093;BME280;5085;48.092;11.484;2023-02-11T13:16:34;96707.06;;;10.90;37.00
10093;BME280;5085;48.092;11.484;2023-02-11T13:24:42;96694.44;;;11.19;36.55
10093;BME280;5085;48.092;11.484;2023-02-11T13:27:39;96686.38;;;12.43;35.05
10093;BME280;5085;48.092;11.484;2023-02-11T13:33:48;96688.50;;;15.17;30.61
10093;BME280;5085;48.092;11.484;2023-02-11T13:38:23;96686.16;;;17.79;28.01
10093;BME280;5085;48.092;11.484;2023-02-11T13:43:33;96680.31;;;18.93;26.11
10093;BME280;5085;48.092;11.484;2023-02-11T13:46:05;96685.66;;;19.52;25.56
10093;BME280;5085;48.092;11.484;2023-02-11T13:48:51;96688.03;;;20.34;24.77
10093;BME280;5085;48.092;11.484;2023-02-11T13:51:33;96683.03;;;20.87;24.08
10093;BME280;5085;48.092;11.484;2023-02-11T13:54:01;96684.84;;;20.78;23.49
10093;BME280;5085;48.092;11.484;2023-02-11T13:56:30;96676.31;;;20.14;23.52
10093;BME280;5085;48.092;11.484;2023-02-11T13:58:59;96687.19;;;18.91;24.80
10093;BME280;5085;48.092;11.484;2023-02-11T14:02:00;96678.72;;;17.40;26.30
10093;BME280;5085;48.092;11.484;2023-02-11T14:10:59;96680.50;;;13.83;30.85
10093;BME280;5085;48.092;11.484;2023-02-11T14:13:33;96683.59;;;13.21;31.43
10093;BME280;5085;48.092;11.484;2023-02-11T14:18:56;96674.00;;;12.31;32.35
10093;BME280;5085;48.092;11.484;2023-02-11T14:26:46;96675.38;;;11.09;34.19
10093;BME280;5085;48.092;11.484;2023-02-11T14:29:30;96670.88;;;10.74;34.34
10093;BME280;5085;48.092;11.484;2023-02-11T14:37:32;96691.84;;;10.13;36.79
10093;BME280;5085;48.092;11.484;2023-02-11T14:42:36;96693.41;;;9.79;38.83
10093;BME280;5085;48.092;11.484;2023-02-11T14:45:06;96695.22;;;9.55;38.67
10093;BME280;5085;48.092;11.484;2023-02-11T14:47:47;96697.59;;;9.33;39.67
10093;BME280;5085;48.092;11.484;2023-02-11T14:50:26;96697.78;;;9.20;39.83
10093;BME280;5085;48.092;11.484;2023-02-11T14:52:54;96701.81;;;9.11;40.00
10093;BME280;5085;48.092;11.484;2023-02-11T14:55:39;96689.75;;;9.01;41.22
10093;BME280;5085;48.092;11.484;2023-02-11T14:58:17;96692.38;;;8.90;41.38
10093;BME280;5085;48.092;11.484;2023-02-11T15:01:04;96689.41;;;8.80;42.71
10093;BME280;5085;48.092;11.484;2023-02-11T15:03:40;96700.44;;;8.71;42.24
10093;BME280;5085;48.092;11.484;2023-02-11T15:06:15;96704.22;;;8.64;43.89